Time;durP1;ratioP1;P1;durP2;ratioP2;P2;SDS_P1;SDS_P2;PMS_P1;PMS_P2;Temp;Humidity;BMP_temperature;BMP_pressure;BME280_temperature;BME280_humidity;BME280_pressure;Samples;Min_cycle;Max_cycle;Signal;HPM_P1;HPM_P2
2022/05/05 00:01:34;;;;;;;1.30;1.20;;;;;;;18.95;47.95;100383.70;1820249;78;21019;-69
2022/05/05 00:04:01;;;;;;;1.17;1.05;;;;;;;18.94;47.95;100382.03;1820363;78;20976;-70
2022/05/05 00:06:28;;;;;;;1.72;1.40;;;;;;;18.93;47.96;100384.92;1820869;77;21251;-70
2022/05/05 00:08:54;;;;;;;1.30;1.20;;;;;;;18.91;47.98;100383.80;1820415;78;21527;-70
2022/05/05 00:14:27;;;;;;;1.42;1.15;;;;;;;18.89;47.97;100386.37;1820328;78;21023;-70
2022/05/05 00:16:58;;;;;;;1.30;1.20;;;;;;;18.87;48.01;100389.27;1794259;78;21004;-70
2022/05/05 00:19:26;;;;;;;0.95;0.95;;;;;;;18.85;47.99;100390.00;1820334;78;21026;-69
2022/05/05 00:21:53;;;;;;;1.15;1.07;;;;;;;18.83;48.05;100407.72;1820831;77;21022;-70
2022/05/05 00:24:20;;;;;;;1.15;1.07;;;;;;;18.81;48.05;100392.79;1787970;79;21138;-70
2022/05/05 00:26:47;;;;;;;1.40;1.30;;;;;;;18.80;48.00;100402.73;1787900;80;21022;-70
2022/05/05 00:29:14;;;;;;;1.07;1.05;;;;;;;18.80;48.02;100411.34;1811513;78;21085;-70
2022/05/05 00:31:41;;;;;;;1.07;1.00;;;;;;;18.78;48.00;100412.85;1814716;79;21541;-70
2022/05/05 00:34:07;;;;;;;1.12;1.12;;;;;;;18.78;47.98;100417.41;1814966;79;21064;-69
2022/05/05 00:36:35;;;;;;;1.30;1.20;;;;;;;18.76;48.00;100418.14;1814676;79;22587;-71
2022/05/05 00:39:02;;;;;;;1.07;1.07;;;;;;;18.74;47.96;100418.34;1815527;77;21034;-70
2022/05/05 00:41:36;;;;;;;1.25;1.12;;;;;;;18.73;47.99;100423.39;1814462;78;21068;-71
2022/05/05 00:44:04;;;;;;;1.47;1.37;;;;;;;18.72;47.99;100422.28;1814811;79;21021;-69
2022/05/05 00:46:31;;;;;;;1.02;1.02;;;;;;;18.70;47.96;100417.09;1814404;78;21076;-70
2022/05/05 00:48:58;;;;;;;1.05;0.95;;;;;;;18.70;48.01;100417.59;1830548;77;21180;-70
2022/05/05 00:51:24;;;;;;;1.15;1.00;;;;;;;18.67;48.00;100421.00;1847705;77;21482;-70
2022/05/05 00:53:52;;;;;;;1.30;1.20;;;;;;;18.67;48.02;100422.88;1847749;77;21076;-71
2022/05/05 00:56:18;;;;;;;1.07;1.07;;;;;;;18.66;48.00;100423.39;1841493;77;21564;-70
2022/05/05 00:58:46;;;;;;;1.20;1.10;;;;;;;18.65;48.01;100428.45;1814593;78;20998;-71
2022/05/05 01:01:16;;;;;;;1.20;1.10;;;;;;;18.63;48.02;100423.80;1814707;78;21168;-70
2022/05/05 01:03:43;;;;;;;1.40;1.02;;;;;;;18.63;47.99;100421.62;1814770;78;20990;-69
2022/05/05 01:06:09;;;;;;;1.10;1.00;;;;;;;18.61;48.00;100433.94;1814384;79;21105;-70
2022/05/05 01:08:36;;;;;;;1.20;1.05;;;;;;;18.60;48.03;100427.41;1814573;79;21069;-70
2022/05/05 01:11:03;;;;;;;1.30;1.20;;;;;;;18.60;48.01;100434.13;1814463;78;21120;-71
2022/05/05 01:13:30;;;;;;;1.22;1.12;;;;;;;18.58;48.00;100434.36;1831288;76;21075;-71
2022/05/05 01:15:56;;;;;;;1.15;1.12;;;;;;;18.58;48.03;100438.89;1873995;76;21010;-71
2022/05/05 01:18:23;;;;;;;0.90;0.90;;;;;;;18.57;48.00;100442.62;1873948;76;21023;-70
2022/05/05 01:20:54;;;;;;;1.30;1.20;;;;;;;18.55;48.03;100439.31;1797168;79;20999;-71
2022/05/05 01:23:21;;;;;;;1.37;1.12;;;;;;;18.54;47.98;100441.68;1798229;79;21015;-70
2022/05/05 01:28:34;;;;;;;1.45;1.35;;;;;;;18.53;47.97;100444.89;1797906;79;21078;-70
2022/05/05 01:31:02;;;;;;;1.27;1.10;;;;;;;18.51;47.99;100443.45;1800931;79;21026;-70
2022/05/05 01:33:30;;;;;;;1.22;1.17;;;;;;;18.49;47.97;100446.34;1882751;76;21049;-71
2022/05/05 01:35:58;;;;;;;1.37;1.27;;;;;;;18.49;47.98;100457.63;1805714;79;21081;-70
2022/05/05 01:38:30;;;;;;;0.90;0.90;;;;;;;18.48;48.02;100460.80;1805567;79;21138;-70
2022/05/05 01:43:25;;;;;;;1.35;1.25;;;;;;;18.50;48.04;100457.92;1870294;76;22530;-69
2022/05/05 01:45:52;;;;;;;1.37;1.20;;;;;;;18.43;48.01;100459.26;1826572;78;21243;-70
2022/05/05 01:48:18;;;;;;;1.25;1.10;;;;;;;18.42;48.01;100457.58;1814235;78;21192;-70
2022/05/05 01:50:48;;;;;;;1.20;1.10;;;;;;;18.41;48.01;100464.83;1826684;78;21481;-70
2022/05/05 01:53:14;;;;;;;1.30;1.20;;;;;;;18.40;48.05;100463.69;1826460;78;21072;-70
2022/05/05 01:55:41;;;;;;;1.60;1.50;;;;;;;18.38;48.02;100464.41;1826501;78;21021;-70
2022/05/05 01:58:07;;;;;;;1.10;1.07;;;;;;;18.38;48.02;100465.75;1825749;78;20996;-71
2022/05/05 02:00:34;;;;;;;1.40;1.30;;;;;;;18.36;48.03;100472.66;1826544;78;21249;-69
2022/05/05 02:03:01;;;;;;;1.20;1.10;;;;;;;18.35;48.05;100471.02;1826505;78;20989;-70
2022/05/05 02:05:27;;;;;;;2.45;1.20;;;;;;;18.34;48.02;100469.35;1804958;78;20989;-70
2022/05/05 02:07:54;;;;;;;1.32;1.22;;;;;;;18.33;48.04;100469.05;1793999;79;21034;-70
2022/05/05 02:10:20;;;;;;;1.07;1.00;;;;;;;18.32;48.03;100476.80;1793934;80;21030;-70
2022/05/05 02:12:48;;;;;;;1.32;1.27;;;;;;;18.31;48.01;100481.88;1794341;80;21479;-70
2022/05/05 02:15:14;;;;;;;1.10;1.10;;;;;;;18.30;48.01;100483.41;1793887;80;21012;-70
2022/05/05 02:17:42;;;;;;;1.10;1.10;;;;;;;18.30;48.01;100484.77;1793978;79;21001;-70
2022/05/05 02:20:13;;;;;;;1.40;1.30;;;;;;;18.27;48.00;100488.17;1793978;80;21011;-71
2022/05/05 02:22:41;;;;;;;1.57;1.10;;;;;;;18.27;48.03;100492.20;1795112;78;20994;-70
2022/05/05 02:25:08;;;;;;;1.30;1.20;;;;;;;18.26;48.03;100497.77;1794091;80;21132;-70
2022/05/05 02:27:48;;;;;;;1.25;1.15;;;;;;;18.24;48.03;100496.62;1793841;80;21041;-70
2022/05/05 02:30:20;;;;;;;1.22;1.10;;;;;;;18.23;48.03;100498.16;1794033;79;20990;-70
2022/05/05 02:32:47;;;;;;;1.10;1.10;;;;;;;18.22;48.03;100497.86;1793995;80;21006;-70
2022/05/05 02:35:14;;;;;;;1.30;1.20;;;;;;;18.20;48.02;100502.09;1793908;80;21002;-70
2022/05/05 02:40:26;;;;;;;1.27;1.17;;;;;;;18.18;48.08;100517.59;1793957;80;21033;-70
2022/05/05 02:42:56;;;;;;;1.25;1.15;;;;;;;18.16;48.09;100521.00;1786692;79;21119;-70
2022/05/05 02:45:23;;;;;;;1.87;1.72;;;;;;;18.16;48.10;100518.84;1783094;80;21033;-70
2022/05/05 02:47:50;;;;;;;1.70;1.45;;;;;;;18.15;48.08;100519.84;1795970;79;21040;-69
2022/05/05 02:50:18;;;;;;;1.15;1.12;;;;;;;18.14;48.09;100522.20;1812871;79;22620;-71
2022/05/05 02:52:44;;;;;;;1.35;1.22;;;;;;;18.13;48.12;100524.07;1812791;78;21040;-70
2022/05/05 02:55:11;;;;;;;1.40;1.30;;;;;;;18.13;48.12;100524.59;1811861;79;20994;-70
2022/05/05 02:57:37;;;;;;;1.27;1.17;;;;;;;18.11;48.13;100521.28;1814789;79;21447;-70
2022/05/05 03:00:07;;;;;;;1.15;1.05;;;;;;;18.11;48.11;100525.31;1814711;78;21034;-70
2022/05/05 03:02:34;;;;;;;1.05;1.00;;;;;;;18.09;48.09;100525.50;1815001;78;21084;-69
2022/05/05 03:05:01;;;;;;;1.40;1.30;;;;;;;18.08;48.12;100531.41;1814538;79;21022;-69
2022/05/05 03:07:27;;;;;;;1.40;1.30;;;;;;;18.07;48.12;100532.94;1814826;78;20995;-69
2022/05/05 03:09:53;;;;;;;1.75;1.37;;;;;;;18.07;48.09;100535.11;1814678;79;20994;-69
2022/05/05 03:12:20;;;;;;;1.82;1.40;;;;;;;18.05;48.10;100531.78;1813414;79;21011;-69
2022/05/05 03:14:47;;;;;;;1.27;1.17;;;;;;;18.05;48.09;100539.85;1814717;79;21498;-70
2022/05/05 03:17:14;;;;;;;1.20;1.10;;;;;;;18.05;48.10;100543.88;1814453;79;20974;-70
2022/05/05 03:19:42;;;;;;;1.42;1.32;;;;;;;18.05;48.13;100544.41;1814692;79;21015;-70
2022/05/05 03:22:08;;;;;;;1.30;1.20;;;;;;;18.03;48.14;100540.56;1814661;78;21022;-70
2022/05/05 03:24:34;;;;;;;1.27;1.20;;;;;;;18.03;48.10;100542.43;1814546;79;21014;-70
2022/05/05 03:27:01;;;;;;;1.37;1.30;;;;;;;18.03;48.11;100550.50;1814615;79;21130;-70
2022/05/05 03:29:28;;;;;;;1.20;1.10;;;;;;;18.02;48.07;100554.20;1813358;79;21013;-70
2022/05/05 03:31:54;;;;;;;1.10;1.00;;;;;;;18.01;48.07;100559.27;1814550;79;21006;-70
2022/05/05 03:34:21;;;;;;;1.20;1.10;;;;;;;18.01;48.10;100561.97;1814611;79;21061;-70
2022/05/05 03:36:48;;;;;;;1.30;1.20;;;;;;;18.00;48.12;100561.14;1814803;79;21490;-71
2022/05/05 03:39:14;;;;;;;1.17;1.12;;;;;;;18.00;48.17;100565.66;1814636;79;21134;-69
2022/05/05 03:41:40;;;;;;;1.30;1.20;;;;;;;18.00;48.10;100568.35;1813860;78;21581;-70
2022/05/05 03:44:07;;;;;;;1.20;1.10;;;;;;;17.99;48.06;100572.91;1814627;77;21038;-69
2022/05/05 03:46:34;;;;;;;1.10;1.00;;;;;;;18.00;48.08;100576.42;1804690;79;21117;-69
2022/05/05 03:49:01;;;;;;;1.27;1.00;;;;;;;17.99;48.06;100578.80;1812187;79;20974;-70
2022/05/05 03:51:28;;;;;;;1.40;1.30;;;;;;;17.99;48.04;100581.49;1814620;79;21238;-70
2022/05/05 03:53:54;;;;;;;1.65;1.32;;;;;;;17.98;48.01;100586.05;1814581;79;21053;-70
2022/05/05 03:56:20;;;;;;;1.45;1.12;;;;;;;17.99;48.05;100585.52;1814666;79;21003;-70
2022/05/05 03:58:47;;;;;;;1.30;1.20;;;;;;;17.99;48.05;100590.38;1814569;79;21061;-70
2022/05/05 04:01:13;;;;;;;1.10;1.07;;;;;;;17.99;48.04;100590.38;1814584;79;20990;-69
2022/05/05 04:03:43;;;;;;;1.55;1.40;;;;;;;18.00;48.04;100594.75;1813442;79;21454;-69
2022/05/05 04:06:08;;;;;;;1.32;1.15;;;;;;;18.00;48.01;100596.09;1814546;78;21026;-71
2022/05/05 04:08:36;;;;;;;1.30;1.20;;;;;;;18.02;47.98;100591.84;1814529;78;21034;-70
2022/05/05 04:11:06;;;;;;;1.20;1.10;;;;;;;18.03;47.96;100593.52;1814625;79;21003;-70
2022/05/05 04:13:33;;;;;;;1.32;1.20;;;;;;;18.02;47.96;100593.18;1814992;78;21058;-69
2022/05/05 04:15:59;;;;;;;1.17;1.12;;;;;;;18.05;47.95;100600.86;1815329;79;21087;-70
2022/05/05 04:18:25;;;;;;;1.20;1.10;;;;;;;18.05;47.95;100598.17;1814641;78;21526;-69
2022/05/05 04:20:53;;;;;;;1.55;1.22;;;;;;;18.06;47.96;100602.55;1813480;78;21144;-70
2022/05/05 04:23:19;;;;;;;1.30;1.12;;;;;;;18.07;47.95;100602.84;1814749;78;21470;-69
2022/05/05 04:25:46;;;;;;;1.42;1.20;;;;;;;18.08;47.93;100609.89;1814767;79;21030;-71
2022/05/05 04:28:12;;;;;;;1.72;1.20;;;;;;;18.10;47.92;100612.36;1814606;79;21075;-69
2022/05/05 04:30:39;;;;;;;1.20;1.10;;;;;;;18.11;47.90;100605.97;1814887;78;21493;-71
2022/05/05 04:33:08;;;;;;;2.47;1.15;;;;;;;18.11;47.88;100608.14;1814624;79;21021;-70
2022/05/05 04:35:35;;;;;;;1.10;1.10;;;;;;;18.13;47.90;100611.47;1814821;78;21042;-70
2022/05/05 04:38:03;;;;;;;1.57;1.40;;;;;;;18.13;47.86;100608.77;1813514;79;20998;-70
2022/05/05 04:40:31;;;;;;;1.40;1.12;;;;;;;18.14;47.88;100614.48;1814644;79;21835;-69
2022/05/05 04:42:57;;;;;;;1.40;1.30;;;;;;;18.16;47.85;100617.80;1814430;78;21030;-70
2022/05/05 04:45:24;;;;;;;1.15;1.10;;;;;;;18.16;47.85;100612.42;1814627;79;21022;-70
2022/05/05 04:47:51;;;;;;;1.30;1.20;;;;;;;18.17;47.86;100612.73;1814600;78;20991;-69
2022/05/05 04:50:18;;;;;;;1.32;1.22;;;;;;;18.18;47.82;100613.06;1814675;79;21470;-70
2022/05/05 04:52:44;;;;;;;1.40;1.30;;;;;;;18.18;47.83;100614.41;1814592;79;21166;-70
2022/05/05 04:55:11;;;;;;;1.20;1.10;;;;;;;18.19;47.83;100618.73;1814034;79;21002;-70
2022/05/05 04:57:38;;;;;;;1.62;1.10;;;;;;;18.21;47.82;100618.55;1813634;79;20998;-70
2022/05/05 05:00:07;;;;;;;1.50;1.40;;;;;;;18.21;47.81;100619.37;1814566;79;21025;-71
2022/05/05 05:02:34;;;;;;;1.30;1.20;;;;;;;18.22;47.81;100621.05;1814639;79;21014;-71
2022/05/05 05:05:00;;;;;;;1.30;1.20;;;;;;;18.22;47.80;100618.36;1814698;79;21116;-69
2022/05/05 05:07:27;;;;;;;1.30;1.20;;;;;;;18.25;47.79;100629.22;1814419;79;21069;-70
2022/05/05 05:09:54;;;;;;;1.42;1.20;;;;;;;18.25;47.77;100626.53;1814722;78;21049;-70
2022/05/05 05:12:20;;;;;;;1.98;1.20;;;;;;;18.26;47.77;100630.37;1794758;78;21038;-71
2022/05/05 05:14:47;;;;;;;1.57;1.47;;;;;;;18.26;47.78;100631.72;1782922;79;21061;-70
2022/05/05 05:17:13;;;;;;;2.12;1.30;;;;;;;18.27;47.76;100631.20;1782629;79;21507;-70
2022/05/05 05:19:41;;;;;;;1.50;1.40;;;;;;;18.27;47.76;100636.09;1782864;79;21033;-70
2022/05/05 05:22:08;;;;;;;1.40;1.30;;;;;;;18.29;47.75;100637.21;1782479;79;20986;-69
2022/05/05 05:24:34;;;;;;;1.67;1.57;;;;;;;18.31;47.75;100638.37;1782617;80;21112;-69
2022/05/05 05:27:01;;;;;;;1.20;1.10;;;;;;;18.31;47.78;100637.88;1782633;80;21034;-71
2022/05/05 05:29:27;;;;;;;1.30;1.20;;;;;;;18.33;47.74;100642.55;1783568;79;21128;-69
2022/05/05 05:31:55;;;;;;;1.20;1.10;;;;;;;18.33;47.74;100643.03;1782520;80;21049;-71
2022/05/05 05:34:21;;;;;;;1.27;1.20;;;;;;;18.34;47.74;100642.02;1782623;79;21517;-70
2022/05/05 05:36:49;;;;;;;1.30;1.20;;;;;;;18.36;47.72;100642.66;1782541;80;21329;-69
2022/05/05 05:39:19;;;;;;;1.30;1.20;;;;;;;18.35;47.72;100639.14;1782447;79;21073;-71
2022/05/05 05:41:45;;;;;;;1.32;1.22;;;;;;;18.37;47.71;100645.64;1782531;80;21138;-70
2022/05/05 05:44:12;;;;;;;1.22;1.12;;;;;;;18.39;47.70;100644.96;1782339;79;21656;-70
2022/05/05 05:46:39;;;;;;;1.40;1.30;;;;;;;18.40;47.68;100649.30;1795166;79;20986;-70
2022/05/05 05:49:06;;;;;;;1.35;1.20;;;;;;;18.41;47.69;100646.94;1814493;79;21062;-70
2022/05/05 05:51:33;;;;;;;1.22;1.12;;;;;;;18.42;47.67;100639.17;1814680;78;21595;-70
2022/05/05 05:53:59;;;;;;;1.12;1.02;;;;;;;18.43;47.66;100643.02;1814640;79;21257;-71
2022/05/05 05:56:26;;;;;;;2.52;1.20;;;;;;;18.45;47.64;100648.20;1814497;79;20959;-71
2022/05/05 05:58:52;;;;;;;1.47;1.37;;;;;;;18.47;47.63;100650.17;1814530;78;21018;-70
2022/05/05 06:01:19;;;;;;;1.62;1.30;;;;;;;18.47;47.63;100643.45;1814550;78;21069;-71
2022/05/05 06:03:54;;;;;;;1.60;1.50;;;;;;;18.49;47.61;100652.16;1813720;78;21443;-70
2022/05/05 06:06:21;;;;;;;1.45;1.35;;;;;;;18.50;47.60;100648.42;1814594;78;21128;-69
2022/05/05 06:08:48;;;;;;;1.30;1.20;;;;;;;18.51;47.59;100652.78;1814552;79;21518;-69
2022/05/05 06:11:18;;;;;;;1.42;1.30;;;;;;;18.52;47.55;100651.73;1814770;78;21025;-70
2022/05/05 06:13:45;;;;;;;1.30;1.20;;;;;;;18.55;47.53;100655.39;1814482;78;21069;-70
2022/05/05 06:16:11;;;;;;;1.30;1.20;;;;;;;18.56;47.54;100646.30;1814564;78;21162;-70
2022/05/05 06:18:41;;;;;;;1.70;1.30;;;;;;;18.57;47.53;100649.30;1814631;79;21721;-70
2022/05/05 06:21:08;;;;;;;1.30;1.20;;;;;;;18.58;47.53;100648.28;1813389;79;20967;-70
2022/05/05 06:23:37;;;;;;;2.77;1.50;;;;;;;18.60;47.52;100651.60;1814417;79;21093;-70
2022/05/05 06:26:04;;;;;;;1.20;1.10;;;;;;;18.61;47.50;100654.59;1814479;78;21014;-70
2022/05/05 06:28:32;;;;;;;1.47;1.37;;;;;;;18.62;47.53;100658.95;1814621;79;21513;-70
2022/05/05 06:31:00;;;;;;;1.47;1.30;;;;;;;18.63;47.49;100642.29;1814814;79;21793;-71
2022/05/05 06:33:27;;;;;;;2.22;1.30;;;;;;;18.64;47.49;100652.86;1814593;78;21065;-70
2022/05/05 06:35:53;;;;;;;1.62;1.50;;;;;;;18.67;47.48;100659.70;1813578;78;20998;-70
2022/05/05 06:38:20;;;;;;;1.20;1.10;;;;;;;18.67;47.51;100659.70;1814529;78;20963;-71
2022/05/05 06:40:46;;;;;;;1.40;1.30;;;;;;;18.69;47.52;100662.20;1814745;79;21022;-69
2022/05/05 06:43:13;;;;;;;1.50;1.40;;;;;;;18.70;47.49;100670.08;1816825;78;21514;-70
2022/05/05 06:45:40;;;;;;;1.30;1.20;;;;;;;18.72;47.49;100671.23;1826093;78;20979;-71
2022/05/05 06:48:07;;;;;;;1.60;1.30;;;;;;;18.73;47.46;100672.88;1826084;78;21029;-71
2022/05/05 06:50:36;;;;;;;1.22;1.12;;;;;;;18.74;47.48;100671.34;1826112;78;20975;-71
2022/05/05 06:53:02;;;;;;;1.22;1.12;;;;;;;18.75;47.50;100671.63;1825290;78;21016;-69
2022/05/05 06:55:29;;;;;;;1.30;1.20;;;;;;;18.77;47.47;100682.20;1826082;78;21039;-69
2022/05/05 06:57:56;;;;;;;1.60;1.10;;;;;;;18.79;47.46;100682.84;1826158;78;21167;-70
2022/05/05 07:00:22;;;;;;;1.50;1.40;;;;;;;18.81;47.50;100682.16;1826147;78;21021;-69
2022/05/05 07:02:49;;;;;;;1.67;1.20;;;;;;;18.81;47.46;100680.81;1826162;78;21037;-70
2022/05/05 07:05:26;;;;;;;1.00;1.00;;;;;;;18.83;47.50;100678.75;1826392;78;21052;-70
2022/05/05 07:07:53;;;;;;;1.30;1.20;;;;;;;18.85;47.49;100683.41;1826235;78;21075;-70
2022/05/05 07:13:06;;;;;;;1.40;1.30;;;;;;;18.86;47.51;100681.88;1826225;78;20974;-70
2022/05/05 07:15:33;;;;;;;1.55;1.45;;;;;;;18.88;47.51;100688.41;1826051;78;21025;-70
2022/05/05 07:18:01;;;;;;;1.72;1.30;;;;;;;18.89;47.52;100686.05;1826153;78;21014;-70
2022/05/05 07:20:27;;;;;;;1.40;1.30;;;;;;;18.89;47.48;100682.02;1826359;78;21129;-70
2022/05/05 07:22:53;;;;;;;1.02;1.02;;;;;;;18.91;47.47;100683.98;1825985;78;20970;-71
2022/05/05 07:25:20;;;;;;;1.55;1.45;;;;;;;18.93;47.50;100685.11;1826168;78;21002;-70
2022/05/05 07:27:47;;;;;;;1.35;1.25;;;;;;;18.94;47.49;100689.48;1825189;78;21560;-69
2022/05/05 07:30:14;;;;;;;1.50;1.30;;;;;;;18.94;47.48;100680.87;1826201;78;20986;-71
2022/05/05 07:32:41;;;;;;;1.15;1.05;;;;;;;18.96;47.46;100680.68;1826105;78;21190;-70
2022/05/05 07:35:09;;;;;;;1.50;1.40;;;;;;;18.96;47.47;100682.85;1826061;78;20983;-70
2022/05/05 07:37:38;;;;;;;1.45;1.35;;;;;;;18.98;47.48;100686.70;1826128;78;20993;-70
2022/05/05 07:40:06;;;;;;;1.40;1.30;;;;;;;18.99;47.53;100688.37;1826136;78;21095;-70
2022/05/05 07:42:34;;;;;;;1.45;1.35;;;;;;;19.00;47.52;100694.06;1826183;78;21014;-71
2022/05/05 07:45:00;;;;;;;1.55;1.45;;;;;;;19.02;47.52;100686.61;1813168;78;21188;-70
2022/05/05 07:47:27;;;;;;;1.45;1.35;;;;;;;19.04;47.55;100683.20;1826029;78;21560;-70
2022/05/05 07:49:53;;;;;;;1.47;1.37;;;;;;;19.05;47.56;100684.34;1826150;78;21041;-70
2022/05/05 07:52:20;;;;;;;1.40;1.30;;;;;;;19.07;47.53;100679.29;1826152;78;20983;-70
2022/05/05 07:54:46;;;;;;;1.50;1.20;;;;;;;19.08;47.59;100685.80;1826225;78;21509;-70
2022/05/05 07:57:13;;;;;;;1.40;1.30;;;;;;;19.10;47.60;100687.77;1826208;78;21125;-70
2022/05/05 07:59:44;;;;;;;1.20;1.10;;;;;;;19.13;47.63;100687.91;1826005;78;21076;-70
2022/05/05 08:02:13;;;;;;;1.67;1.20;;;;;;;19.14;47.65;100689.55;1808296;78;21045;-70
2022/05/05 08:04:37;;;;;;;1.10;1.10;;;;;;;19.16;47.73;100676.71;1793320;79;21041;-71
2022/05/05 08:07:04;;;;;;;1.27;1.25;;;;;;;19.17;47.73;100681.91;1793723;79;21001;-69
2022/05/05 08:09:30;;;;;;;1.50;1.40;;;;;;;19.20;47.75;100682.01;1793504;80;21133;-70
2022/05/05 08:11:59;;;;;;;1.30;1.20;;;;;;;19.21;47.81;100676.95;1793638;80;21049;-69
2022/05/05 08:14:27;;;;;;;1.12;1.10;;;;;;;19.23;47.80;100673.53;1793616;79;21060;-70
2022/05/05 08:16:55;;;;;;;1.40;1.30;;;;;;;19.25;47.88;100680.89;1793664;80;20982;-71
2022/05/05 08:19:22;;;;;;;2.20;1.30;;;;;;;19.25;47.81;100686.28;1794605;78;21557;-71
2022/05/05 08:21:50;;;;;;;1.37;1.27;;;;;;;19.28;47.87;100681.85;1793571;80;21275;-69
2022/05/05 08:29:48;;;;;;;1.12;1.12;;;;;;;19.32;47.92;100675.02;1793622;80;20998;-70
2022/05/05 08:32:14;;;;;;;1.20;1.10;;;;;;;19.34;47.93;100682.91;1793771;80;21045;-70
2022/05/05 08:34:42;;;;;;;1.22;1.20;;;;;;;19.35;47.95;100681.33;1793799;79;21049;-69
2022/05/05 08:37:09;;;;;;;1.27;1.17;;;;;;;19.36;47.98;100682.19;1794531;78;21474;-70
2022/05/05 08:39:36;;;;;;;1.40;1.30;;;;;;;19.38;47.97;100684.16;1793504;79;21076;-70
2022/05/05 08:42:07;;;;;;;1.37;1.20;;;;;;;19.39;48.04;100683.95;1793835;80;21104;-71
2022/05/05 08:44:33;;;;;;;1.20;1.10;;;;;;;19.41;47.98;100683.23;1803832;78;21037;-71
2022/05/05 08:47:00;;;;;;;1.32;1.22;;;;;;;19.43;47.93;100688.40;1826081;78;21291;-70
2022/05/05 08:49:26;;;;;;;1.12;1.05;;;;;;;19.44;47.97;100680.12;1825894;78;21060;-72
2022/05/05 08:52:12;;;;;;;1.67;1.57;;;;;;;19.48;47.96;100678.38;1825316;78;21076;-71
2022/05/05 08:54:39;;;;;;;1.20;1.10;;;;;;;19.50;47.98;100676.30;1826053;78;21061;-71
2022/05/05 08:57:06;;;;;;;1.40;1.30;;;;;;;19.51;47.96;100673.91;1826233;78;21458;-69
2022/05/05 08:59:33;;;;;;;1.27;1.17;;;;;;;19.54;47.91;100670.81;1825987;78;21139;-70
2022/05/05 09:01:59;;;;;;;1.37;1.27;;;;;;;19.55;47.98;100669.27;1826158;78;21462;-70
2022/05/05 09:04:26;;;;;;;1.40;1.30;;;;;;;19.58;47.94;100667.50;1826025;78;21235;-70
2022/05/05 09:06:53;;;;;;;1.20;1.20;;;;;;;19.61;47.92;100670.32;1826205;78;21025;-70
2022/05/05 09:09:33;;;;;;;1.35;1.20;;;;;;;19.64;47.87;100668.55;1824920;78;21506;-70
2022/05/05 09:12:17;;;;;;;1.10;1.00;;;;;;;19.66;47.85;100671.86;1826022;78;21126;-71
2022/05/05 09:14:49;;;;;;;1.35;1.25;;;;;;;19.69;47.92;100678.20;1826014;78;20966;-69
2022/05/05 09:17:24;;;;;;;1.50;1.40;;;;;;;19.73;47.86;100678.66;1826413;78;21032;-70
2022/05/05 09:19:56;;;;;;;1.30;1.20;;;;;;;19.75;47.87;100671.20;1826015;78;21049;-70
2022/05/05 09:22:24;;;;;;;1.20;1.10;;;;;;;19.78;47.88;100677.50;1825982;78;21053;-70
2022/05/05 09:24:56;;;;;;;1.27;1.20;;;;;;;19.81;47.82;100681.97;1825999;78;21819;-70
2022/05/05 09:27:27;;;;;;;1.40;1.30;;;;;;;19.85;47.75;100672.95;1824849;78;21034;-70
2022/05/05 09:30:04;;;;;;;1.62;1.22;;;;;;;19.88;47.72;100669.04;1826132;78;21041;-70
2022/05/05 09:32:42;;;;;;;1.25;1.20;;;;;;;19.92;47.76;100666.23;1826001;78;20973;-69
2022/05/05 09:35:13;;;;;;;1.00;1.00;;;;;;;19.96;47.67;100668.83;1826044;78;21815;-70
2022/05/05 09:37:48;;;;;;;1.30;1.10;;;;;;;19.99;47.74;100667.05;1826062;78;21127;-70
2022/05/05 09:40:24;;;;;;;1.12;1.12;;;;;;;20.04;48.06;100665.91;1826066;78;21512;-69
2022/05/05 09:42:52;;;;;;;1.30;1.20;;;;;;;20.08;48.05;100669.84;1825356;78;21014;-71
2022/05/05 09:45:27;;;;;;;1.20;1.15;;;;;;;20.13;48.15;100660.63;1813947;78;21021;-69
2022/05/05 09:47:57;;;;;;;1.20;1.10;;;;;;;20.19;48.11;100669.75;1826111;78;21034;-69
2022/05/05 09:50:26;;;;;;;1.40;1.30;;;;;;;20.25;48.22;100676.18;1825995;78;21771;-70
2022/05/05 09:58:26;;;;;;;1.20;1.10;;;;;;;20.41;48.22;100656.31;1826043;78;20974;-70
2022/05/05 10:01:03;;;;;;;1.05;1.05;;;;;;;20.47;48.31;100657.34;1812189;78;21072;-70
2022/05/05 10:06:29;;;;;;;1.47;1.37;;;;;;;20.60;48.19;100668.67;1793663;79;21056;-69
2022/05/05 10:09:02;;;;;;;1.30;1.20;;;;;;;20.66;48.27;100661.59;1793982;79;21049;-70
2022/05/05 10:11:29;;;;;;;1.32;1.22;;;;;;;20.74;48.11;100659.48;1776400;80;28617;-70
2022/05/05 10:13:56;;;;;;;1.45;1.35;;;;;;;20.81;47.99;100652.72;1793726;79;20978;-69
2022/05/05 10:16:23;;;;;;;1.20;1.10;;;;;;;20.88;47.89;100656.23;1793904;80;21141;-70
2022/05/05 10:18:51;;;;;;;1.22;1.10;;;;;;;20.95;47.79;100657.02;1794662;78;21025;-70
2022/05/05 10:21:41;;;;;;;1.27;1.17;;;;;;;21.01;47.77;100648.08;1793586;80;20981;-70
2022/05/05 10:24:31;;;;;;;1.30;1.20;;;;;;;21.10;47.67;100659.45;1793507;79;21017;-69
2022/05/05 10:27:03;;;;;;;1.22;1.15;;;;;;;21.19;47.52;100654.11;1793899;80;21001;-70
2022/05/05 10:29:40;;;;;;;1.52;1.42;;;;;;;21.28;47.42;100653.85;1793678;80;21812;-70
2022/05/05 10:32:20;;;;;;;1.20;1.10;;;;;;;21.34;47.32;100653.83;1793924;79;21565;-70
2022/05/05 10:35:12;;;;;;;1.60;1.20;;;;;;;21.44;47.25;100658.80;1794866;78;20990;-69
2022/05/05 10:37:40;;;;;;;1.30;1.20;;;;;;;21.52;47.18;100653.65;1792844;79;21922;-69
2022/05/05 10:40:09;;;;;;;1.20;1.10;;;;;;;21.60;47.10;100655.55;1793710;80;21065;-70
2022/05/05 10:42:44;;;;;;;1.40;1.30;;;;;;;21.69;47.06;100644.46;1793871;79;21571;-69
2022/05/05 10:45:19;;;;;;;0.93;0.93;;;;;;;21.76;47.02;100653.36;1820610;78;21016;-69
2022/05/05 10:48:04;;;;;;;1.40;1.30;;;;;;;21.85;46.99;100655.28;1814718;79;21026;-69
2022/05/05 10:50:43;;;;;;;1.07;1.02;;;;;;;21.93;46.95;100640.95;1814700;78;21026;-71
2022/05/05 10:53:40;;;;;;;1.45;1.35;;;;;;;22.02;46.94;100644.22;1813785;79;21026;-70
2022/05/05 10:56:30;;;;;;;1.35;1.25;;;;;;;22.10;46.86;100638.52;1814733;78;21503;-69
2022/05/05 10:59:08;;;;;;;1.00;1.00;;;;;;;22.19;46.84;100635.83;1813729;78;21048;-69
2022/05/05 11:01:50;;;;;;;1.35;1.25;;;;;;;22.28;46.81;100636.38;1814760;78;21485;-70
2022/05/05 11:04:23;;;;;;;1.52;1.30;;;;;;;22.36;46.80;100627.14;1814615;79;21018;-69
2022/05/05 11:07:23;;;;;;;1.15;1.15;;;;;;;22.47;46.76;100639.12;1814717;79;21069;-70
2022/05/05 11:09:50;;;;;;;1.10;1.10;;;;;;;22.55;46.77;100637.46;1788153;79;21183;-70
2022/05/05 11:12:23;;;;;;;1.30;1.20;;;;;;;22.64;46.71;100632.05;1782447;80;21044;-69
2022/05/05 11:23:45;;;;;;;1.37;1.27;;;;;;;23.02;46.63;100627.41;1782563;80;21210;-69
2022/05/05 11:26:20;;;;;;;1.05;0.95;;;;;;;23.12;46.60;100629.06;1783845;79;20985;-71
2022/05/05 11:28:48;;;;;;;1.20;1.20;;;;;;;23.22;46.55;100628.52;1782638;80;21025;-70
2022/05/05 11:31:22;;;;;;;1.62;1.52;;;;;;;23.30;46.51;100624.96;1782483;79;21490;-69
2022/05/05 11:33:57;;;;;;;1.30;1.20;;;;;;;23.41;46.46;100623.86;1782551;80;21057;-70
2022/05/05 11:36:33;;;;;;;1.62;1.52;;;;;;;23.52;46.42;100625.78;1782562;80;21137;-70
2022/05/05 11:38:59;;;;;;;1.10;1.10;;;;;;;23.62;46.37;100618.44;1782464;79;21022;-70
2022/05/05 11:41:28;;;;;;;1.20;1.10;;;;;;;23.72;46.29;100624.95;1782469;80;21034;-69
2022/05/05 11:46:40;;;;;;;1.25;1.15;;;;;;;23.93;46.17;100620.88;1814519;78;21029;-70
2022/05/05 11:49:08;;;;;;;1.30;1.20;;;;;;;24.06;46.09;100619.80;1814687;79;21219;-70
2022/05/05 11:51:35;;;;;;;1.57;1.37;;;;;;;24.17;46.00;100624.13;1814459;78;21525;-69
2022/05/05 11:54:08;;;;;;;1.12;1.10;;;;;;;24.30;45.92;100621.17;1814712;79;21054;-73
2022/05/05 11:56:43;;;;;;;1.20;1.10;;;;;;;24.41;45.85;100628.45;1814512;79;21010;-70
2022/05/05 12:02:11;;;;;;;1.10;1.10;;;;;;;24.66;45.66;100609.18;1782451;79;21855;-69
2022/05/05 12:04:49;;;;;;;1.30;1.20;;;;;;;24.80;45.57;100604.32;1782432;80;21552;-70
2022/05/05 12:07:23;;;;;;;1.27;1.17;;;;;;;24.90;45.47;100596.36;1782709;79;20986;-69
2022/05/05 12:09:51;;;;;;;;;;;;;;;25.02;45.37;100595.49;1785025;79;21065;-71
2022/05/05 12:12:26;;;;;;;1.40;1.30;;;;;;;25.12;45.31;100589.69;1782264;79;20155;-70
2022/05/05 12:14:57;;;;;;;1.40;1.20;;;;;;;25.23;45.31;100589.92;1782498;80;21773;-70